createdAt,value
2024-02-29T00:02:12.705Z,9.88
2024-02-29T00:04:39.597Z,9.86
2024-02-29T00:07:07.086Z,9.85
2024-02-29T00:09:33.998Z,9.85
2024-02-29T00:12:00.864Z,9.84
2024-02-29T00:14:28.335Z,9.83
2024-02-29T00:16:55.293Z,9.81
2024-02-29T00:19:22.313Z,9.81
2024-02-29T00:21:49.277Z,9.79
2024-02-29T00:24:16.641Z,9.78
2024-02-29T00:26:43.488Z,9.77
2024-02-29T00:29:10.403Z,9.77
2024-02-29T00:31:37.278Z,9.76
2024-02-29T00:34:05.077Z,9.73
2024-02-29T00:36:31.971Z,9.74
2024-02-29T00:39:06.123Z,9.72
2024-02-29T00:41:38.816Z,9.72
2024-02-29T00:44:05.879Z,9.73
2024-02-29T00:46:32.736Z,9.73
2024-02-29T00:48:59.635Z,9.72
2024-02-29T00:51:26.589Z,9.70
2024-02-29T00:53:53.421Z,9.70
2024-02-29T00:56:20.349Z,9.69
2024-02-29T00:58:47.272Z,9.67
2024-02-29T01:01:14.205Z,9.66
2024-02-29T01:03:41.209Z,9.64
2024-02-29T01:06:08.593Z,9.63
2024-02-29T01:08:36.451Z,9.61
2024-02-29T01:11:06.875Z,9.61
2024-02-29T01:13:34.011Z,9.60
2024-02-29T01:16:00.926Z,9.57
2024-02-29T01:18:27.751Z,9.55
2024-02-29T01:20:54.585Z,9.56
2024-02-29T01:23:21.483Z,9.54
2024-02-29T01:25:48.273Z,9.55
2024-02-29T01:28:15.239Z,9.55
2024-02-29T01:30:42.113Z,9.54
2024-02-29T01:33:09.064Z,9.51
2024-02-29T01:35:35.927Z,9.51
2024-02-29T01:38:02.764Z,9.50
2024-02-29T01:40:29.578Z,9.50
2024-02-29T01:42:56.410Z,9.50
2024-02-29T01:45:23.266Z,9.50
2024-02-29T01:47:50.067Z,9.50
2024-02-29T01:50:18.139Z,9.49
2024-02-29T01:52:45.955Z,9.49
2024-02-29T01:55:13.521Z,9.48
2024-02-29T01:57:41.455Z,9.48
2024-02-29T02:00:10.271Z,9.49
2024-02-29T02:02:39.715Z,9.51
2024-02-29T02:05:08.301Z,9.50
2024-02-29T02:07:38.398Z,9.51
2024-02-29T02:10:09.003Z,9.51
2024-02-29T02:12:36.828Z,9.51
2024-02-29T02:15:04.610Z,9.50
2024-02-29T02:17:33.786Z,9.50
2024-02-29T02:20:01.971Z,9.50
2024-02-29T02:22:30.017Z,9.50
2024-02-29T02:24:57.665Z,9.49
2024-02-29T02:27:24.819Z,9.49
2024-02-29T02:29:51.768Z,9.49
2024-02-29T02:32:18.732Z,9.50
2024-02-29T02:34:45.639Z,9.49
2024-02-29T02:37:12.546Z,9.48
2024-02-29T02:39:39.612Z,9.50
2024-02-29T02:42:06.487Z,9.49
2024-02-29T02:44:33.433Z,9.50
2024-02-29T02:47:00.454Z,9.51
2024-02-29T02:49:27.261Z,9.50
2024-02-29T02:51:54.137Z,9.51
2024-02-29T02:54:21.002Z,9.50
2024-02-29T02:56:47.808Z,9.51
2024-02-29T02:59:14.656Z,9.51
2024-02-29T03:01:41.646Z,9.51
2024-02-29T03:04:08.586Z,9.52
2024-02-29T03:06:35.520Z,9.52
2024-02-29T03:09:02.987Z,9.52
2024-02-29T03:11:29.857Z,9.52
2024-02-29T03:13:56.919Z,9.53
2024-02-29T03:16:24.709Z,9.52
2024-02-29T03:18:51.934Z,9.52
2024-02-29T03:21:19.290Z,9.51
2024-02-29T03:23:46.289Z,9.52
2024-02-29T03:26:13.114Z,9.51
2024-02-29T03:28:40.308Z,9.51
2024-02-29T03:31:14.717Z,9.50
2024-02-29T03:33:42.592Z,9.51
2024-02-29T03:36:10.181Z,9.51
2024-02-29T03:38:38.313Z,9.50
2024-02-29T03:41:08.131Z,9.51
2024-02-29T03:43:38.430Z,9.50
2024-02-29T03:46:05.407Z,9.51
2024-02-29T03:48:32.495Z,9.50
2024-02-29T03:50:59.529Z,9.50
2024-02-29T03:53:26.313Z,9.50
2024-02-29T03:55:53.154Z,9.51
2024-02-29T03:58:20.073Z,9.51
2024-02-29T04:00:47.275Z,9.51
2024-02-29T04:03:14.153Z,9.51
2024-02-29T04:05:40.988Z,9.51
2024-02-29T04:08:12.611Z,9.51
2024-02-29T04:10:40.190Z,9.51
2024-02-29T04:13:07.259Z,9.51
2024-02-29T04:15:34.413Z,9.51
2024-02-29T04:18:01.597Z,9.50
2024-02-29T04:20:28.454Z,9.50
2024-02-29T04:22:55.603Z,9.50
2024-02-29T04:25:24.286Z,9.48
2024-02-29T04:27:52.013Z,9.48
2024-02-29T04:30:19.292Z,9.46
2024-02-29T04:32:46.567Z,9.46
2024-02-29T04:35:13.579Z,9.46
2024-02-29T04:37:40.543Z,9.45
2024-02-29T04:40:11.301Z,9.45
2024-02-29T04:42:39.912Z,9.46
2024-02-29T04:45:08.414Z,9.45
2024-02-29T04:47:36.112Z,9.44
2024-02-29T04:50:04.484Z,9.42
2024-02-29T04:52:31.412Z,9.41
2024-02-29T04:54:58.366Z,9.40
2024-02-29T04:57:25.245Z,9.40
2024-02-29T04:59:52.608Z,9.39
2024-02-29T05:02:19.386Z,9.39
2024-02-29T05:04:46.356Z,9.38
2024-02-29T05:07:13.505Z,9.38
2024-02-29T05:09:40.373Z,9.38
2024-02-29T05:12:07.592Z,9.39
2024-02-29T05:14:34.494Z,9.38
2024-02-29T05:17:01.367Z,9.37
2024-02-29T05:19:28.210Z,9.35
2024-02-29T05:21:56.570Z,9.30
2024-02-29T05:24:23.667Z,9.27
2024-02-29T05:26:50.517Z,9.22
2024-02-29T05:29:17.681Z,9.16
2024-02-29T05:31:52.823Z,9.08
2024-02-29T05:34:21.656Z,9.01
2024-02-29T05:36:49.075Z,8.95
2024-02-29T05:39:16.291Z,8.89
2024-02-29T05:41:43.062Z,8.84
2024-02-29T05:44:10.049Z,8.82
2024-02-29T05:46:37.489Z,8.78
2024-02-29T05:49:04.302Z,8.72
2024-02-29T05:51:31.143Z,8.67
2024-02-29T05:53:58.073Z,8.63
2024-02-29T05:56:26.292Z,8.62
2024-02-29T05:58:53.131Z,8.60
2024-02-29T06:01:20.392Z,8.55
2024-02-29T06:03:47.493Z,8.50
2024-02-29T06:06:16.861Z,8.49
2024-02-29T06:08:43.938Z,8.48
2024-02-29T06:11:15.043Z,8.45
2024-02-29T06:13:42.490Z,8.43
2024-02-29T06:16:12.052Z,8.41
2024-02-29T06:18:38.961Z,8.39
2024-02-29T06:21:06.160Z,8.37
2024-02-29T06:23:33.041Z,8.34
2024-02-29T06:25:59.947Z,8.33
2024-02-29T06:28:26.856Z,8.28
2024-02-29T06:30:54.866Z,8.26
2024-02-29T06:33:21.705Z,8.21
2024-02-29T06:35:48.513Z,8.20
2024-02-29T06:38:16.249Z,8.21
2024-02-29T06:40:43.229Z,8.19
2024-02-29T06:43:10.099Z,8.18
2024-02-29T06:45:37.058Z,8.13
2024-02-29T06:48:05.387Z,8.10
2024-02-29T06:50:32.253Z,8.06
2024-02-29T06:52:59.101Z,8.04
2024-02-29T06:55:25.958Z,8.03
2024-02-29T06:57:52.924Z,8.04
2024-02-29T07:00:20.209Z,8.03
2024-02-29T07:02:47.023Z,8.01
2024-02-29T07:05:13.920Z,7.99
2024-02-29T07:07:40.722Z,7.99
2024-02-29T07:10:09.172Z,8.00
2024-02-29T07:12:36.099Z,7.96
2024-02-29T07:15:03.638Z,7.93
2024-02-29T07:17:30.658Z,7.92
2024-02-29T07:19:57.569Z,7.91
2024-02-29T07:22:25.020Z,7.91
2024-02-29T07:24:51.952Z,7.92
2024-02-29T07:27:18.865Z,7.94
2024-02-29T07:29:45.650Z,7.95
2024-02-29T07:32:12.460Z,7.96
2024-02-29T07:34:39.300Z,7.95
2024-02-29T07:37:06.309Z,7.96
2024-02-29T07:39:33.245Z,7.94
2024-02-29T07:42:00.084Z,7.93
2024-02-29T07:44:26.966Z,7.94
2024-02-29T07:46:54.046Z,7.96
2024-02-29T07:49:20.978Z,7.95
2024-02-29T07:51:47.909Z,7.96
2024-02-29T07:54:14.726Z,7.98
2024-02-29T07:56:42.497Z,8.01
2024-02-29T07:59:09.345Z,8.04
2024-02-29T08:01:36.687Z,8.06
2024-02-29T08:04:03.880Z,8.08
2024-02-29T08:06:30.825Z,8.10
2024-02-29T08:08:57.663Z,8.16
2024-02-29T08:11:27.196Z,8.19
2024-02-29T08:13:54.692Z,8.18
2024-02-29T08:16:21.632Z,8.19
2024-02-29T08:18:48.771Z,8.21
2024-02-29T08:21:15.900Z,8.23
2024-02-29T08:23:42.671Z,8.24
2024-02-29T08:26:10.384Z,8.26
2024-02-29T08:28:38.445Z,8.27
2024-02-29T08:31:07.129Z,8.29
2024-02-29T08:33:33.996Z,8.30
2024-02-29T08:36:01.131Z,8.32
2024-02-29T08:38:28.395Z,8.35
2024-02-29T08:40:55.311Z,8.39
2024-02-29T08:43:22.846Z,8.41
2024-02-29T08:45:51.263Z,8.41
2024-02-29T08:48:18.169Z,8.41
2024-02-29T08:50:44.980Z,8.41
2024-02-29T08:53:12.153Z,8.40
2024-02-29T08:55:39.016Z,8.40
2024-02-29T08:58:06.393Z,8.41
2024-02-29T09:00:33.314Z,8.43
2024-02-29T09:03:00.208Z,8.48
2024-02-29T09:05:27.051Z,8.50
2024-02-29T09:07:54.368Z,8.50
2024-02-29T09:10:23.151Z,8.50
2024-02-29T09:12:50.105Z,8.55
2024-02-29T09:15:17.149Z,8.55
2024-02-29T09:17:44.279Z,8.56
2024-02-29T09:20:12.106Z,8.62
2024-02-29T09:22:39.018Z,8.62
2024-02-29T09:25:08.049Z,8.62
2024-02-29T09:27:35.073Z,8.61
2024-02-29T09:30:01.986Z,8.63
2024-02-29T09:32:28.872Z,8.67
2024-02-29T09:34:55.693Z,8.69
2024-02-29T09:37:23.034Z,8.71
2024-02-29T09:39:50.007Z,8.72
2024-02-29T09:42:17.242Z,8.72
2024-02-29T09:44:44.750Z,8.71
2024-02-29T09:47:13.856Z,8.71
2024-02-29T09:49:41.970Z,8.69
2024-02-29T09:52:09.607Z,8.70
2024-02-29T09:54:39.650Z,8.73
2024-02-29T09:57:12.547Z,8.77
2024-02-29T09:59:42.877Z,8.81
2024-02-29T10:02:15.613Z,8.76
2024-02-29T10:04:42.838Z,8.75
2024-02-29T10:07:11.026Z,8.77
2024-02-29T10:09:38.329Z,8.81
2024-02-29T10:12:05.629Z,8.87
2024-02-29T10:14:32.538Z,8.92
2024-02-29T10:16:59.868Z,8.95
2024-02-29T10:19:26.822Z,8.94
2024-02-29T10:21:53.994Z,8.98
2024-02-29T10:24:23.060Z,9.00
2024-02-29T10:26:51.037Z,9.00
2024-02-29T10:29:23.191Z,9.01
2024-02-29T10:31:50.738Z,9.07
2024-02-29T10:34:20.466Z,9.11
2024-02-29T10:36:47.776Z,9.15
2024-02-29T10:39:14.758Z,9.18
2024-02-29T10:41:49.136Z,9.17
2024-02-29T10:44:20.384Z,9.08
2024-02-29T10:46:50.693Z,9.02
2024-02-29T10:49:30.612Z,8.99
2024-02-29T10:52:10.895Z,8.96
2024-02-29T10:54:46.181Z,8.96
2024-02-29T10:57:23.228Z,8.92
2024-02-29T11:00:06.334Z,8.85
2024-02-29T11:02:33.780Z,8.86
2024-02-29T11:05:01.915Z,8.85
2024-02-29T11:07:30.048Z,8.86
2024-02-29T11:09:57.635Z,8.94
2024-02-29T11:12:28.303Z,8.96
2024-02-29T11:14:59.080Z,8.93
2024-02-29T11:17:34.626Z,8.87
2024-02-29T11:20:08.505Z,8.85
2024-02-29T11:22:36.335Z,8.93
2024-02-29T11:25:12.234Z,8.91
2024-02-29T11:27:51.964Z,8.95
2024-02-29T11:30:22.626Z,9.03
2024-02-29T11:32:50.042Z,9.11
2024-02-29T11:35:17.245Z,9.15
2024-02-29T11:37:45.758Z,9.16
2024-02-29T11:40:20.186Z,9.14
2024-02-29T11:42:47.263Z,9.13
2024-02-29T11:45:23.421Z,9.11
2024-02-29T11:47:50.725Z,9.09
2024-02-29T11:50:18.582Z,9.00
2024-02-29T11:52:46.055Z,8.99
2024-02-29T11:55:13.572Z,9.01
2024-02-29T11:57:42.507Z,9.05
2024-02-29T12:00:09.951Z,9.06
2024-02-29T12:02:38.488Z,9.07
2024-02-29T12:05:06.658Z,9.04
2024-02-29T12:07:33.927Z,9.06
2024-02-29T12:10:02.644Z,9.04
2024-02-29T12:12:30.408Z,9.07
2024-02-29T12:14:58.494Z,9.10
2024-02-29T12:17:28.381Z,9.17
2024-02-29T12:19:56.415Z,9.20
2024-02-29T12:22:23.412Z,9.24
2024-02-29T12:24:50.389Z,9.28
2024-02-29T12:27:17.330Z,9.33
2024-02-29T12:29:45.068Z,9.33
2024-02-29T12:32:12.695Z,9.31
2024-02-29T12:34:41.616Z,9.28
2024-02-29T12:37:13.097Z,9.26
2024-02-29T12:39:40.935Z,9.25
2024-02-29T12:42:08.299Z,9.23
2024-02-29T12:44:35.175Z,9.19
2024-02-29T12:47:01.999Z,9.17
2024-02-29T12:49:29.451Z,9.14
2024-02-29T12:51:56.604Z,9.11
2024-02-29T12:54:24.155Z,9.07
2024-02-29T12:56:51.081Z,9.06
2024-02-29T12:59:18.983Z,9.04
2024-02-29T13:01:46.118Z,9.01
2024-02-29T13:04:13.319Z,9.01
2024-02-29T13:06:40.419Z,9.00
2024-02-29T13:09:07.576Z,8.99
2024-02-29T13:11:35.543Z,9.00
2024-02-29T13:14:02.539Z,9.05
2024-02-29T13:16:29.680Z,9.08
2024-02-29T13:18:56.600Z,9.09
2024-02-29T13:21:23.859Z,9.11
2024-02-29T13:23:50.707Z,9.12
2024-02-29T13:26:17.519Z,9.13
2024-02-29T13:28:45.029Z,9.12
2024-02-29T13:31:11.909Z,9.12
2024-02-29T13:33:38.807Z,9.09
2024-02-29T13:36:06.255Z,9.07
2024-02-29T13:38:33.268Z,9.00
2024-02-29T13:41:00.126Z,9.02
2024-02-29T13:43:27.094Z,9.04
2024-02-29T13:45:54.083Z,9.03
2024-02-29T13:48:20.910Z,9.07
2024-02-29T13:50:47.703Z,9.10
2024-02-29T13:53:14.662Z,9.14
2024-02-29T13:55:45.711Z,9.16
2024-02-29T13:58:14.613Z,9.17
2024-02-29T14:00:41.943Z,9.19
2024-02-29T14:03:08.797Z,9.22
2024-02-29T14:05:35.695Z,9.24
2024-02-29T14:08:02.734Z,9.26
2024-02-29T14:10:29.622Z,9.30
2024-02-29T14:12:56.811Z,9.30
2024-02-29T14:15:23.730Z,9.30
2024-02-29T14:17:51.884Z,9.28
2024-02-29T14:20:19.108Z,9.30
2024-02-29T14:22:45.995Z,9.29
2024-02-29T14:25:12.904Z,9.29
2024-02-29T14:27:39.912Z,9.30
2024-02-29T14:30:10.224Z,9.29
2024-02-29T14:32:38.549Z,9.27
2024-02-29T14:35:06.018Z,9.26
2024-02-29T14:37:34.044Z,9.27
2024-02-29T14:40:01.525Z,9.27
2024-02-29T14:42:28.794Z,9.28
2024-02-29T14:44:58.008Z,9.32
2024-02-29T14:47:27.029Z,9.34
2024-02-29T14:49:55.024Z,9.36
2024-02-29T14:52:21.978Z,9.35
2024-02-29T14:54:49.600Z,9.33
2024-02-29T14:57:17.416Z,9.29
2024-02-29T14:59:44.655Z,9.28
2024-02-29T15:02:12.595Z,9.29
2024-02-29T15:04:39.459Z,9.29
2024-02-29T15:07:06.834Z,9.33
2024-02-29T15:09:33.909Z,9.31
2024-02-29T15:12:00.950Z,9.32
2024-02-29T15:14:27.852Z,9.29
2024-02-29T15:16:55.289Z,9.29
2024-02-29T15:19:25.504Z,9.30
2024-02-29T15:21:52.773Z,9.31
2024-02-29T15:24:21.720Z,9.29
2024-02-29T15:26:49.264Z,9.28
2024-02-29T15:29:16.214Z,9.26
2024-02-29T15:31:45.467Z,9.27
2024-02-29T15:34:14.791Z,9.30
2024-02-29T15:36:42.046Z,9.30
2024-02-29T15:39:08.890Z,9.30
2024-02-29T15:41:36.246Z,9.28
2024-02-29T15:44:03.129Z,9.22
2024-02-29T15:46:30.277Z,9.19
2024-02-29T15:48:57.306Z,9.17
2024-02-29T15:51:25.272Z,9.15
2024-02-29T15:53:52.111Z,9.10
2024-02-29T15:56:19.514Z,9.10
2024-02-29T15:58:46.392Z,9.07
2024-02-29T16:01:13.427Z,9.04
2024-02-29T16:03:40.507Z,9.05
2024-02-29T16:06:07.368Z,9.03
2024-02-29T16:08:34.229Z,9.02
2024-02-29T16:11:01.168Z,9.00
2024-02-29T16:13:28.300Z,8.97
2024-02-29T16:15:56.383Z,8.96
2024-02-29T16:18:23.692Z,8.97
2024-02-29T16:20:52.616Z,8.97
2024-02-29T16:23:20.239Z,8.96
2024-02-29T16:25:47.261Z,8.94
2024-02-29T16:28:14.379Z,8.94
2024-02-29T16:30:41.273Z,8.93
2024-02-29T16:33:08.182Z,8.92
2024-02-29T16:35:35.090Z,8.90
2024-02-29T16:38:03.488Z,8.86
2024-02-29T16:40:31.420Z,8.78
2024-02-29T16:42:58.423Z,8.77
2024-02-29T16:45:25.249Z,8.77
2024-02-29T16:47:52.504Z,8.75
2024-02-29T16:50:19.575Z,8.71
2024-02-29T16:52:46.420Z,8.69
2024-02-29T16:55:13.717Z,8.71
2024-02-29T16:57:40.706Z,8.69
2024-02-29T17:00:10.137Z,8.65
2024-02-29T17:02:37.032Z,8.63
2024-02-29T17:05:04.158Z,8.57
2024-02-29T17:07:31.876Z,8.54
2024-02-29T17:10:00.615Z,8.47
2024-02-29T17:12:28.261Z,8.43
2024-02-29T17:14:55.470Z,8.39
2024-02-29T17:17:22.443Z,8.38
2024-02-29T17:19:49.384Z,8.34
2024-02-29T17:22:16.358Z,8.33
2024-02-29T17:24:45.075Z,8.32
2024-02-29T17:27:11.971Z,8.29
2024-02-29T17:29:38.840Z,8.23
2024-02-29T17:32:05.995Z,8.19
2024-02-29T17:34:32.880Z,8.16
2024-02-29T17:36:59.736Z,8.13
2024-02-29T17:39:26.635Z,8.09
2024-02-29T17:41:53.479Z,8.04
2024-02-29T17:44:23.383Z,7.99
2024-02-29T17:46:50.231Z,7.93
2024-02-29T17:49:17.549Z,7.91
2024-02-29T17:51:47.817Z,7.86
2024-02-29T17:54:14.793Z,7.81
2024-02-29T17:56:42.713Z,7.78
2024-02-29T17:59:11.150Z,7.75
2024-02-29T18:01:38.488Z,7.72
2024-02-29T18:04:06.060Z,7.70
2024-02-29T18:06:33.102Z,7.64
2024-02-29T18:08:59.900Z,7.61
2024-02-29T18:11:26.763Z,7.58
2024-02-29T18:13:53.601Z,7.54
2024-02-29T18:16:20.446Z,7.51
2024-02-29T18:18:48.810Z,7.50
2024-02-29T18:21:15.696Z,7.50
2024-02-29T18:23:42.591Z,7.48
2024-02-29T18:26:09.448Z,7.47
2024-02-29T18:28:36.250Z,7.44
2024-02-29T18:31:04.387Z,7.42
2024-02-29T18:33:31.233Z,7.39
2024-02-29T18:35:58.366Z,7.37
2024-02-29T18:38:27.288Z,7.35
2024-02-29T18:40:54.096Z,7.32
2024-02-29T18:43:21.079Z,7.30
2024-02-29T18:45:57.060Z,7.28
2024-02-29T18:48:29.710Z,7.25
2024-02-29T18:50:56.517Z,7.25
2024-02-29T18:53:23.333Z,7.24
2024-02-29T18:55:51.167Z,7.23
2024-02-29T18:58:18.348Z,7.19
2024-02-29T19:00:45.414Z,7.20
2024-02-29T19:03:12.262Z,7.21
2024-02-29T19:05:39.047Z,7.20
2024-02-29T19:08:06.405Z,7.19
2024-02-29T19:10:34.304Z,7.19
2024-02-29T19:13:01.191Z,7.17
2024-02-29T19:15:27.974Z,7.15
2024-02-29T19:17:55.024Z,7.11
2024-02-29T19:20:21.880Z,7.09
2024-02-29T19:22:48.698Z,7.05
2024-02-29T19:25:15.583Z,7.00
2024-02-29T19:27:42.525Z,6.94
2024-02-29T19:30:12.069Z,6.91
2024-02-29T19:32:39.009Z,6.85
2024-02-29T19:35:06.710Z,6.81
2024-02-29T19:37:33.708Z,6.76
2024-02-29T19:40:00.608Z,6.71
2024-02-29T19:42:27.521Z,6.67
2024-02-29T19:44:59.222Z,6.65
2024-02-29T19:47:26.555Z,6.62
2024-02-29T19:49:53.408Z,6.58
2024-02-29T19:52:20.367Z,6.54
2024-02-29T19:54:48.367Z,6.51
2024-02-29T19:57:15.597Z,6.47
2024-02-29T19:59:42.544Z,6.45
2024-02-29T20:02:09.923Z,6.42
2024-02-29T20:04:37.169Z,6.38
2024-02-29T20:07:04.807Z,6.33
2024-02-29T20:09:31.948Z,6.28
2024-02-29T20:11:58.856Z,6.22
2024-02-29T20:14:25.714Z,6.18
2024-02-29T20:16:52.654Z,6.14
2024-02-29T20:19:19.573Z,6.08
2024-02-29T20:21:48.192Z,6.03
2024-02-29T20:24:15.668Z,6.03
2024-02-29T20:26:44.818Z,6.02
2024-02-29T20:29:11.804Z,6.00
2024-02-29T20:31:38.639Z,5.98
2024-02-29T20:34:05.453Z,5.94
2024-02-29T20:36:32.322Z,5.91
2024-02-29T20:38:59.463Z,5.90
2024-02-29T20:41:26.291Z,5.89
2024-02-29T20:43:53.165Z,5.87
2024-02-29T20:46:20.514Z,5.83
2024-02-29T20:48:48.263Z,5.82
2024-02-29T20:51:15.269Z,5.79
2024-02-29T20:53:42.236Z,5.77
2024-02-29T20:56:09.161Z,5.73
2024-02-29T20:58:37.105Z,5.70
2024-02-29T21:01:04.421Z,5.68
2024-02-29T21:03:31.434Z,5.65
2024-02-29T21:06:00.309Z,5.65
2024-02-29T21:08:33.315Z,5.62
2024-02-29T21:11:01.927Z,5.60
2024-02-29T21:13:34.603Z,5.60
2024-02-29T21:16:01.688Z,5.59
2024-02-29T21:18:28.726Z,5.53
2024-02-29T21:20:55.806Z,5.51
2024-02-29T21:23:23.292Z,5.51
2024-02-29T21:25:50.126Z,5.50
2024-02-29T21:28:17.055Z,5.49
2024-02-29T21:30:43.921Z,5.47
2024-02-29T21:33:11.224Z,5.43
2024-02-29T21:35:38.518Z,5.40
2024-02-29T21:38:05.480Z,5.37
2024-02-29T21:40:32.461Z,5.32
2024-02-29T21:43:00.715Z,5.27
2024-02-29T21:45:27.623Z,5.24
2024-02-29T21:47:54.460Z,5.20
2024-02-29T21:50:22.976Z,5.17
2024-02-29T21:52:50.081Z,5.14
2024-02-29T21:55:17.101Z,5.12
2024-02-29T21:57:44.418Z,5.09
2024-02-29T22:00:13.991Z,5.06
2024-02-29T22:02:43.976Z,5.04
2024-02-29T22:05:11.767Z,5.02
2024-02-29T22:07:38.861Z,4.99
2024-02-29T22:10:06.069Z,4.97
2024-02-29T22:12:32.975Z,4.94
2024-02-29T22:14:59.870Z,4.91
2024-02-29T22:17:26.688Z,4.90
2024-02-29T22:19:53.566Z,4.87
2024-02-29T22:22:20.422Z,4.84
2024-02-29T22:24:47.323Z,4.82
2024-02-29T22:27:14.272Z,4.78
2024-02-29T22:29:41.145Z,4.76
2024-02-29T22:32:08.199Z,4.74
2024-02-29T22:34:35.130Z,4.73
2024-02-29T22:37:04.268Z,4.69
2024-02-29T22:39:31.185Z,4.66
2024-02-29T22:42:01.918Z,4.61
2024-02-29T22:44:30.072Z,4.57
2024-02-29T22:46:57.111Z,4.51
2024-02-29T22:49:24.553Z,4.45
2024-02-29T22:51:51.911Z,4.41
2024-02-29T22:54:19.167Z,4.34
2024-02-29T22:56:46.079Z,4.29
2024-02-29T22:59:12.946Z,4.21
2024-02-29T23:01:46.365Z,4.17
2024-02-29T23:04:13.819Z,4.13
2024-02-29T23:06:41.298Z,4.09
2024-02-29T23:09:08.307Z,4.04
2024-02-29T23:11:35.248Z,4.00
2024-02-29T23:14:02.233Z,3.93
2024-02-29T23:16:29.100Z,3.89
2024-02-29T23:18:55.949Z,3.85
2024-02-29T23:21:22.954Z,3.80
2024-02-29T23:23:49.773Z,3.77
2024-02-29T23:26:17.556Z,3.73
2024-02-29T23:28:44.375Z,3.68
2024-02-29T23:31:11.266Z,3.64
2024-02-29T23:33:38.410Z,3.62
2024-02-29T23:36:07.751Z,3.58
2024-02-29T23:38:34.684Z,3.54
2024-02-29T23:41:01.737Z,3.53
2024-02-29T23:43:28.755Z,3.51
2024-02-29T23:45:56.350Z,3.48
2024-02-29T23:48:23.236Z,3.47
2024-02-29T23:50:50.216Z,3.44
2024-02-29T23:53:17.350Z,3.41
2024-02-29T23:55:44.658Z,3.37
2024-02-29T23:58:11.483Z,3.34
